createdAt,value
2022-08-28T00:03:30.421Z,16.2
2022-08-28T00:13:29.443Z,16.1
2022-08-28T00:23:30.439Z,15.9
2022-08-28T00:33:30.521Z,15.8
2022-08-28T00:43:30.662Z,15.8
2022-08-28T00:53:32.672Z,15.8
2022-08-28T01:03:31.334Z,15.9
2022-08-28T01:13:31.966Z,15.9
2022-08-28T01:23:32.795Z,15.8
2022-08-28T01:33:33.770Z,15.7
2022-08-28T01:43:34.058Z,15.5
2022-08-28T01:53:34.349Z,15.3
2022-08-28T02:03:34.723Z,15.2
2022-08-28T02:13:35.264Z,15.1
2022-08-28T02:23:35.422Z,15
2022-08-28T02:33:36.434Z,14.8
2022-08-28T02:43:36.981Z,14.6
2022-08-28T02:53:37.951Z,14.5
2022-08-28T03:03:38.734Z,14.4
2022-08-28T03:13:39.245Z,14.3
2022-08-28T03:23:39.580Z,14.1
2022-08-28T03:33:42.623Z,13.9
2022-08-28T03:43:41.526Z,13.8
2022-08-28T04:03:42.185Z,13.4
2022-08-28T04:23:43.762Z,13.2
2022-08-28T04:43:44.766Z,13
2022-08-28T06:23:50.666Z,14.2
2022-08-28T07:03:53.287Z,15.3
2022-08-28T07:23:54.074Z,16.1
2022-08-28T07:33:54.617Z,16.4
2022-08-28T07:53:55.088Z,17.1
2022-08-28T08:03:57.725Z,17.5
2022-08-28T08:13:56.570Z,18.1
2022-08-28T08:23:57.018Z,18.3
2022-08-28T08:33:58.055Z,18.5
2022-08-28T08:43:58.899Z,18.7
2022-08-28T08:53:59.148Z,18.9
2022-08-28T09:03:59.503Z,19.1
2022-08-28T09:13:59.603Z,18.9
2022-08-28T09:24:00.001Z,18.9
2022-08-28T09:34:00.951Z,19.5
2022-08-28T10:04:01.935Z,20.3
2022-08-28T10:04:23.830Z,20.3
2022-08-28T10:14:07.878Z,20.1
2022-08-28T10:34:09.473Z,20.7
2022-08-28T10:44:10.450Z,20.6
2022-08-28T10:54:11.028Z,21.3
2022-08-28T11:04:12.079Z,21.8
2022-08-28T11:14:13.081Z,22
2022-08-28T11:24:14.086Z,22.1
2022-08-28T11:34:14.840Z,22.4
2022-08-28T11:44:15.012Z,22.5
2022-08-28T11:54:15.693Z,22.6
2022-08-28T12:04:16.262Z,22.8
2022-08-28T12:14:17.312Z,23.4
2022-08-28T12:24:17.682Z,23.5
2022-08-28T12:34:18.699Z,24.7
2022-08-28T12:44:19.398Z,23.7
2022-08-28T12:54:20.391Z,24.2
2022-08-28T13:04:21.112Z,24.2
2022-08-28T13:14:21.828Z,25.9
2022-08-28T13:24:22.713Z,25.1
2022-08-28T13:34:23.502Z,25.8
2022-08-28T13:54:24.608Z,26.2
2022-08-28T14:04:24.802Z,26.5
2022-08-28T14:14:25.333Z,26.2
2022-08-28T14:24:26.119Z,27.1
2022-08-28T14:34:26.479Z,26.5
2022-08-28T14:44:26.638Z,25.6
2022-08-28T14:54:27.494Z,25.7
2022-08-28T15:04:27.719Z,25.9
2022-08-28T15:14:27.941Z,26.7
2022-08-28T15:24:28.787Z,26.5
2022-08-28T15:34:29.531Z,25.9
2022-08-28T15:44:29.722Z,24.7
2022-08-28T15:54:30.215Z,25.5
2022-08-28T16:14:31.289Z,25.1
2022-08-28T16:24:31.724Z,23.9
2022-08-28T16:34:32.671Z,22.9
2022-08-28T16:44:33.291Z,22.2
2022-08-28T16:54:33.626Z,21.9
2022-08-28T17:04:34.126Z,21.8
2022-08-28T17:24:34.601Z,21.4
2022-08-28T17:34:34.877Z,21.2
2022-08-28T17:44:35.245Z,21
2022-08-28T17:54:35.946Z,20.7
2022-08-28T18:04:36.447Z,20.5
2022-08-28T18:14:37.129Z,20.2
2022-08-28T18:24:37.548Z,19.9
2022-08-28T18:34:38.239Z,19.6
2022-08-28T18:44:38.979Z,19.4
2022-08-28T18:54:39.212Z,19.1
2022-08-28T19:14:40.770Z,18.6
2022-08-28T19:24:40.925Z,18.4
2022-08-28T19:34:41.687Z,18.2
2022-08-28T19:44:42.467Z,18
2022-08-28T19:54:43.251Z,17.8
2022-08-28T20:14:44.326Z,17.4
2022-08-28T20:24:44.506Z,17.2
2022-08-28T20:34:45.118Z,17
2022-08-28T20:44:45.434Z,16.8
2022-08-28T20:54:45.629Z,16.6
2022-08-28T21:04:46.078Z,16.4
2022-08-28T21:14:51.305Z,16.1
2022-08-28T21:24:47.441Z,15.8
2022-08-28T21:34:47.564Z,15.5
2022-08-28T21:44:51.313Z,15.2
2022-08-28T21:54:48.152Z,15
2022-08-28T22:04:48.651Z,14.8
2022-08-28T22:14:49.640Z,14.7
2022-08-28T22:24:49.697Z,14.6
2022-08-28T22:34:50.150Z,14.5
2022-08-28T22:44:50.795Z,14.4
2022-08-28T22:54:53.093Z,14.3
2022-08-28T23:04:52.812Z,14.1
2022-08-28T23:14:52.969Z,14
2022-08-28T23:24:53.121Z,13.8
2022-08-28T23:34:53.837Z,13.7
2022-08-28T23:54:55.218Z,13.5
